createdAt,value
2022-11-20T00:01:27.698Z,7.82
2022-11-20T00:03:56.577Z,7.28
2022-11-20T00:06:24.444Z,7.95
2022-11-20T00:08:51.873Z,7.80
2022-11-20T00:11:21.930Z,7.55
2022-11-20T00:13:52.955Z,7.40
2022-11-20T00:16:23.541Z,7.30
2022-11-20T00:18:51.033Z,7.10
2022-11-20T00:21:22.099Z,7.47
2022-11-20T00:23:50.512Z,7.03
2022-11-20T00:26:19.898Z,7.30
2022-11-20T00:28:53.276Z,6.78
2022-11-20T00:31:20.613Z,7.30
2022-11-20T00:33:47.757Z,7.35
2022-11-20T00:36:18.348Z,7.50
2022-11-20T00:38:46.052Z,6.75
2022-11-20T00:41:16.511Z,6.88
2022-11-20T00:43:43.970Z,7.10
2022-11-20T00:46:16.141Z,7.57
2022-11-20T00:48:43.357Z,7.63
2022-11-20T00:51:13.256Z,6.95
2022-11-20T00:53:39.764Z,7.35
2022-11-20T00:56:11.492Z,7.28
2022-11-20T00:58:41.681Z,6.93
2022-11-20T01:01:13.692Z,7.70
2022-11-20T01:03:44.796Z,7.15
2022-11-20T01:06:15.492Z,6.93
2022-11-20T01:08:42.803Z,7.13
2022-11-20T01:11:19.849Z,6.72
2022-11-20T01:13:48.944Z,6.78
2022-11-20T01:16:21.132Z,7.55
2022-11-20T01:18:51.636Z,7.07
2022-11-20T01:21:22.821Z,7.60
2022-11-20T01:23:50.704Z,7.15
2022-11-20T01:26:22.167Z,7.60
2022-11-20T01:28:49.832Z,7.30
2022-11-20T01:31:28.721Z,7.22
2022-11-20T01:33:59.152Z,6.85
2022-11-20T01:36:30.029Z,6.80
2022-11-20T01:39:00.664Z,7.15
2022-11-20T01:41:50.001Z,7.35
2022-11-20T01:44:21.743Z,6.90
2022-11-20T01:47:02.720Z,7.50
2022-11-20T01:49:43.033Z,7.40
2022-11-20T01:52:19.812Z,7.18
2022-11-20T01:54:55.692Z,6.90
2022-11-20T01:57:27.690Z,7.13
2022-11-20T02:00:05.020Z,6.95
2022-11-20T02:02:31.720Z,6.82
2022-11-20T02:05:10.273Z,7.22
2022-11-20T02:07:37.642Z,6.75
2022-11-20T02:10:04.622Z,7.20
2022-11-20T02:12:49.674Z,7.10
2022-11-20T02:15:16.280Z,7.05
2022-11-20T02:17:42.777Z,7.28
2022-11-20T02:20:10.273Z,7.03
2022-11-20T02:22:54.813Z,7.57
2022-11-20T02:25:22.738Z,7.22
2022-11-20T02:27:49.538Z,6.88
2022-11-20T02:30:16.079Z,7.93
2022-11-20T02:32:42.719Z,7.45
2022-11-20T02:35:19.724Z,7.30
2022-11-20T02:37:51.760Z,7.88
2022-11-20T02:40:18.387Z,8.25
2022-11-20T02:42:44.891Z,7.50
2022-11-20T02:45:12.331Z,7.75
2022-11-20T02:47:38.835Z,8.10
2022-11-20T02:50:07.311Z,7.90
2022-11-20T02:52:33.833Z,7.68
2022-11-20T02:55:00.477Z,8.50
2022-11-20T02:57:27.024Z,8.30
2022-11-20T02:59:53.511Z,8.20
2022-11-20T03:02:20.199Z,8.20
2022-11-20T03:04:46.721Z,7.90
2022-11-20T03:07:13.341Z,8.43
2022-11-20T03:09:39.786Z,8.10
2022-11-20T03:12:06.530Z,7.47
2022-11-20T03:14:33.033Z,7.30
2022-11-20T03:16:59.559Z,7.93
2022-11-20T03:19:26.004Z,7.65
2022-11-20T03:21:52.452Z,7.65
2022-11-20T03:24:19.029Z,8.25
2022-11-20T03:26:45.493Z,7.72
2022-11-20T03:29:12.118Z,8.10
2022-11-20T03:31:41.403Z,8.05
2022-11-20T03:34:11.592Z,8.00
2022-11-20T03:36:43.484Z,8.18
2022-11-20T03:39:10.650Z,7.85
2022-11-20T03:41:40.581Z,7.85
2022-11-20T03:44:10.977Z,7.60
2022-11-20T03:46:38.417Z,8.32
2022-11-20T03:49:05.520Z,8.32
2022-11-20T03:51:35.738Z,7.88
2022-11-20T03:54:08.466Z,7.88
2022-11-20T03:56:38.788Z,7.97
2022-11-20T03:59:06.063Z,8.35
2022-11-20T04:01:36.653Z,8.32
2022-11-20T04:04:04.300Z,8.07
2022-11-20T04:06:35.999Z,8.88
2022-11-20T04:09:03.222Z,8.07
2022-11-20T04:11:36.571Z,7.78
2022-11-20T04:14:06.721Z,8.15
2022-11-20T04:16:36.850Z,8.60
2022-11-20T04:19:07.499Z,8.15
2022-11-20T04:21:34.169Z,9.02
2022-11-20T04:24:00.684Z,9.57
2022-11-20T04:26:29.953Z,8.90
2022-11-20T04:28:58.326Z,8.57
2022-11-20T04:31:31.651Z,9.70
2022-11-20T04:34:07.081Z,8.02
2022-11-20T04:36:34.886Z,8.95
2022-11-20T04:39:06.737Z,8.75
2022-11-20T04:41:37.155Z,9.18
2022-11-20T04:44:06.588Z,8.90
2022-11-20T04:46:40.365Z,9.35
2022-11-20T04:49:08.042Z,8.63
2022-11-20T04:51:35.779Z,9.55
2022-11-20T04:54:02.592Z,9.50
2022-11-20T04:56:29.138Z,9.45
2022-11-20T04:58:55.623Z,9.45
2022-11-20T05:01:25.251Z,8.80
2022-11-20T05:03:52.320Z,9.10
2022-11-20T05:06:22.030Z,8.73
2022-11-20T05:08:48.819Z,9.82
2022-11-20T05:11:19.865Z,9.65
2022-11-20T05:13:47.099Z,9.38
2022-11-20T05:16:17.908Z,9.43
2022-11-20T05:18:44.831Z,9.07
2022-11-20T05:21:13.590Z,9.15
2022-11-20T05:23:40.830Z,8.95
2022-11-20T05:26:15.573Z,8.85
2022-11-20T05:28:42.113Z,9.30
2022-11-20T05:31:11.929Z,9.82
2022-11-20T05:33:41.823Z,9.05
2022-11-20T05:36:09.281Z,9.05
2022-11-20T05:38:36.076Z,9.40
2022-11-20T05:41:13.168Z,8.88
2022-11-20T05:43:42.529Z,9.40
2022-11-20T05:46:13.486Z,9.45
2022-11-20T05:48:42.383Z,9.80
2022-11-20T05:51:13.267Z,9.10
2022-11-20T05:53:45.174Z,9.20
2022-11-20T05:56:18.688Z,9.48
2022-11-20T05:58:46.654Z,9.48
2022-11-20T06:01:21.793Z,9.13
2022-11-20T06:03:51.299Z,9.50
2022-11-20T06:06:19.556Z,8.98
2022-11-20T06:08:47.132Z,9.15
2022-11-20T06:11:15.935Z,9.32
2022-11-20T06:13:43.086Z,11.43
2022-11-20T06:16:12.182Z,11.02
2022-11-20T06:18:39.814Z,9.70
2022-11-20T06:21:16.522Z,10.52
2022-11-20T06:26:22.149Z,11.88
2022-11-20T06:28:49.181Z,12.30
2022-11-20T06:31:18.594Z,11.70
2022-11-20T06:33:46.109Z,13.85
2022-11-20T06:36:16.206Z,12.68
2022-11-20T06:38:43.181Z,11.52
2022-11-20T06:41:17.840Z,11.68
2022-11-20T06:43:44.568Z,11.60
2022-11-20T06:46:13.800Z,12.15
2022-11-20T06:48:41.199Z,12.40
2022-11-20T06:51:09.298Z,12.27
2022-11-20T06:53:36.796Z,12.35
2022-11-20T06:56:04.079Z,13.95
2022-11-20T06:58:33.854Z,13.60
2022-11-20T07:01:06.939Z,13.63
2022-11-20T07:03:33.538Z,13.45
2022-11-20T07:06:02.158Z,13.23
2022-11-20T07:08:29.537Z,14.25
2022-11-20T07:11:02.291Z,15.10
2022-11-20T07:13:30.104Z,13.65
2022-11-20T07:16:05.582Z,14.43
2022-11-20T07:18:32.196Z,15.50
2022-11-20T07:21:08.365Z,14.55
2022-11-20T07:23:35.356Z,14.75
2022-11-20T07:26:10.939Z,14.93
2022-11-20T07:28:38.534Z,15.55
2022-11-20T07:31:05.891Z,15.15
2022-11-20T07:33:32.561Z,15.68
2022-11-20T07:36:02.946Z,14.45
2022-11-20T07:38:29.901Z,14.63
2022-11-20T07:40:58.672Z,15.32
2022-11-20T07:43:26.115Z,14.68
2022-11-20T07:45:52.633Z,14.07
2022-11-20T07:48:19.074Z,15.23
2022-11-20T07:50:45.592Z,14.05
2022-11-20T07:53:13.645Z,14.68
2022-11-20T07:55:40.480Z,14.50
2022-11-20T07:58:07.007Z,15.18
2022-11-20T08:00:33.561Z,13.77
2022-11-20T08:03:00.062Z,15.35
2022-11-20T08:05:26.583Z,16.30
2022-11-20T08:07:53.018Z,14.27
2022-11-20T08:10:19.648Z,15.82
2022-11-20T08:13:10.690Z,15.07
2022-11-20T08:15:39.836Z,14.27
2022-11-20T08:18:30.680Z,17.73
2022-11-20T08:20:58.540Z,14.68
2022-11-20T08:23:25.162Z,13.93
2022-11-20T08:25:52.139Z,14.85
2022-11-20T08:28:21.876Z,15.32
2022-11-20T08:30:50.715Z,15.07
2022-11-20T08:33:18.244Z,15.63
2022-11-20T08:35:44.842Z,14.68
2022-11-20T08:38:11.379Z,14.70
2022-11-20T08:40:37.839Z,13.48
2022-11-20T08:43:05.179Z,15.43
2022-11-20T08:45:34.553Z,13.13
2022-11-20T08:48:05.392Z,14.23
2022-11-20T08:50:33.794Z,14.10
2022-11-20T08:53:07.276Z,13.52
2022-11-20T08:55:36.396Z,13.55
2022-11-20T08:58:06.573Z,12.80
2022-11-20T09:00:34.951Z,11.82
2022-11-20T09:03:02.686Z,12.27
2022-11-20T09:05:30.028Z,11.60
2022-11-20T09:08:00.438Z,12.48
2022-11-20T09:10:28.275Z,11.88
2022-11-20T09:12:58.562Z,28.20
2022-11-20T09:15:27.041Z,15.18
2022-11-20T09:17:59.319Z,18.38
2022-11-20T09:20:27.753Z,12.00
2022-11-20T09:22:54.256Z,11.48
2022-11-20T09:25:20.914Z,11.35
2022-11-20T09:27:47.509Z,11.90
2022-11-20T09:30:15.768Z,11.90
2022-11-20T09:32:43.736Z,11.68
2022-11-20T09:35:11.326Z,10.15
2022-11-20T09:37:37.887Z,10.40
2022-11-20T09:40:05.091Z,11.18
2022-11-20T09:43:13.282Z,11.00
2022-11-20T09:49:19.095Z,10.00
2022-11-20T09:52:28.924Z,10.00
2022-11-20T09:54:56.094Z,11.38
2022-11-20T09:57:35.578Z,11.23
2022-11-20T10:00:06.518Z,30.38
2022-11-20T10:03:12.744Z,10.57
2022-11-20T10:05:47.337Z,9.38
2022-11-20T10:08:31.447Z,8.93
2022-11-20T10:11:31.341Z,8.77
2022-11-20T10:14:27.171Z,9.50
2022-11-20T10:17:33.732Z,9.55
2022-11-20T10:20:25.245Z,9.93
2022-11-20T10:23:30.763Z,9.18
2022-11-20T10:26:19.388Z,9.65
2022-11-20T10:29:12.476Z,9.63
2022-11-20T10:31:46.858Z,9.15
2022-11-20T10:34:27.443Z,9.05
2022-11-20T10:37:04.520Z,9.05
2022-11-20T10:40:18.568Z,9.75
2022-11-20T10:42:57.188Z,8.88
2022-11-20T10:45:26.798Z,9.38
2022-11-20T10:48:08.151Z,10.75
2022-11-20T10:50:41.149Z,14.05
2022-11-20T10:53:31.636Z,9.95
2022-11-20T10:56:21.231Z,9.68
2022-11-20T10:59:36.272Z,9.50
2022-11-20T11:02:03.530Z,9.27
2022-11-20T11:04:47.790Z,9.10
2022-11-20T11:07:28.711Z,9.95
2022-11-20T11:09:57.426Z,9.45
2022-11-20T11:12:28.811Z,9.93
2022-11-20T11:14:58.513Z,10.10
2022-11-20T11:17:32.867Z,10.05
2022-11-20T11:20:22.090Z,10.27
2022-11-20T11:22:51.491Z,10.50
2022-11-20T11:25:29.910Z,10.52
2022-11-20T11:28:01.179Z,13.27
2022-11-20T11:30:31.193Z,10.75
2022-11-20T11:33:11.916Z,10.63
2022-11-20T11:35:54.833Z,10.25
2022-11-20T11:38:29.573Z,10.32
2022-11-20T11:40:58.378Z,10.07
2022-11-20T11:43:48.081Z,10.45
2022-11-20T11:46:30.012Z,10.25
2022-11-20T11:49:18.080Z,10.30
2022-11-20T11:52:06.242Z,10.25
2022-11-20T11:54:58.001Z,10.27
2022-11-20T11:57:42.537Z,10.40
2022-11-20T12:00:17.702Z,10.18
2022-11-20T12:02:47.287Z,11.35
2022-11-20T12:05:24.426Z,10.15
2022-11-20T12:08:12.403Z,10.85
2022-11-20T12:11:02.887Z,11.57
2022-11-20T12:13:35.412Z,10.75
2022-11-20T12:16:04.960Z,10.40
2022-11-20T12:18:32.412Z,11.00
2022-11-20T12:22:10.995Z,11.35
2022-11-20T12:25:08.389Z,10.20
2022-11-20T12:28:08.703Z,11.35
2022-11-20T12:30:50.303Z,10.60
2022-11-20T12:33:55.828Z,11.02
2022-11-20T12:36:57.544Z,10.30
2022-11-20T12:39:36.461Z,11.63
2022-11-20T12:42:42.886Z,11.45
2022-11-20T12:45:55.378Z,12.13
2022-11-20T12:48:56.376Z,12.13
2022-11-20T12:52:01.353Z,11.82
2022-11-20T12:55:00.373Z,11.80
2022-11-20T12:57:50.343Z,11.68
2022-11-20T13:00:22.822Z,11.38
2022-11-20T13:03:22.954Z,16.35
2022-11-20T13:05:58.542Z,16.30
2022-11-20T13:08:35.138Z,12.73
2022-11-20T13:11:08.281Z,12.75
2022-11-20T13:14:07.037Z,12.68
2022-11-20T13:16:39.536Z,12.10
2022-11-20T13:19:13.080Z,12.32
2022-11-20T13:21:57.524Z,12.30
2022-11-20T13:24:27.651Z,13.05
2022-11-20T13:27:09.403Z,11.77
2022-11-20T13:29:39.045Z,13.45
2022-11-20T13:32:16.893Z,13.80
2022-11-20T13:34:56.745Z,12.50
2022-11-20T13:37:37.723Z,12.43
2022-11-20T13:40:11.204Z,11.02
2022-11-20T13:42:45.793Z,13.20
2022-11-20T13:45:31.586Z,11.85
2022-11-20T13:48:04.095Z,12.43
2022-11-20T13:51:04.335Z,13.18
2022-11-20T13:54:07.744Z,12.52
2022-11-20T13:57:22.911Z,12.73
2022-11-20T14:00:13.116Z,13.20
2022-11-20T14:02:41.177Z,13.40
2022-11-20T14:05:23.892Z,13.13
2022-11-20T14:07:53.721Z,12.50
2022-11-20T14:10:31.638Z,12.13
2022-11-20T14:12:59.292Z,12.13
2022-11-20T14:15:35.166Z,12.70
2022-11-20T14:18:15.549Z,13.82
2022-11-20T14:20:44.127Z,12.00
2022-11-20T14:23:11.856Z,13.13
2022-11-20T14:25:43.903Z,12.13
2022-11-20T14:28:31.640Z,13.23
2022-11-20T14:30:58.809Z,13.55
2022-11-20T14:33:28.565Z,12.43
2022-11-20T14:35:58.490Z,12.35
2022-11-20T14:38:32.190Z,12.38
2022-11-20T14:41:21.064Z,12.77
2022-11-20T14:44:02.894Z,12.05
2022-11-20T14:46:33.165Z,12.35
2022-11-20T14:49:04.077Z,12.75
2022-11-20T14:51:44.150Z,12.38
2022-11-20T14:54:26.485Z,13.07
2022-11-20T14:57:04.796Z,13.02
2022-11-20T14:59:35.946Z,12.75
2022-11-20T15:02:07.507Z,12.40
2022-11-20T15:04:34.056Z,11.80
2022-11-20T15:07:01.820Z,13.55
2022-11-20T15:09:28.373Z,11.95
2022-11-20T15:12:04.801Z,13.20
2022-11-20T15:14:33.546Z,21.08
2022-11-20T15:17:00.461Z,12.70
2022-11-20T15:19:27.906Z,13.73
2022-11-20T15:21:54.448Z,12.43
2022-11-20T15:24:22.101Z,15.25
2022-11-20T15:26:48.880Z,13.88
2022-11-20T15:29:21.733Z,14.82
2022-11-20T15:31:48.204Z,14.93
2022-11-20T15:34:16.633Z,13.68
2022-11-20T15:36:44.873Z,13.00
2022-11-20T15:39:12.341Z,13.00
2022-11-20T15:41:39.891Z,14.05
2022-11-20T15:44:06.613Z,13.60
2022-11-20T15:46:39.463Z,13.73
2022-11-20T15:49:06.778Z,12.98
2022-11-20T15:51:37.220Z,57.67
2022-11-20T15:54:22.500Z,79.82
2022-11-20T15:56:53.165Z,29.40
2022-11-20T15:59:19.728Z,16.48
2022-11-20T16:01:46.587Z,12.70
2022-11-20T16:04:16.545Z,11.85
2022-11-20T16:06:43.696Z,11.68
2022-11-20T16:09:10.591Z,12.85
2022-11-20T16:11:37.534Z,13.20
2022-11-20T16:14:23.758Z,13.93
2022-11-20T16:16:50.987Z,14.03
2022-11-20T16:19:18.945Z,15.00
2022-11-20T16:21:45.432Z,87.30
2022-11-20T16:24:15.283Z,23.92
2022-11-20T16:26:42.002Z,17.23
2022-11-20T16:29:09.267Z,15.95
2022-11-20T16:31:35.936Z,51.30
2022-11-20T16:34:12.044Z,26.10
2022-11-20T16:36:44.483Z,20.63
2022-11-20T16:39:12.173Z,26.60
2022-11-20T16:41:39.289Z,19.98
2022-11-20T16:44:11.588Z,15.75
2022-11-20T16:46:38.812Z,14.63
2022-11-20T16:49:11.911Z,14.23
2022-11-20T16:51:38.361Z,13.15
2022-11-20T16:54:07.958Z,16.38
2022-11-20T16:56:35.146Z,16.55
2022-11-20T16:59:02.627Z,15.63
2022-11-20T17:01:30.352Z,12.63
2022-11-20T17:04:04.286Z,12.40
2022-11-20T17:06:36.691Z,10.45
2022-11-20T17:09:04.379Z,9.95
2022-11-20T17:11:31.021Z,8.90
2022-11-20T17:14:07.231Z,9.73
2022-11-20T17:16:36.273Z,7.07
2022-11-20T17:19:05.233Z,7.10
2022-11-20T17:21:36.009Z,6.93
2022-11-20T17:24:06.857Z,6.13
2022-11-20T17:26:35.076Z,6.22
2022-11-20T17:29:15.411Z,6.45
2022-11-20T17:31:43.323Z,6.55
2022-11-20T17:34:14.923Z,6.28
2022-11-20T17:36:45.441Z,6.47
2022-11-20T17:39:15.210Z,6.43
2022-11-20T17:41:41.871Z,6.22
2022-11-20T17:44:13.031Z,6.35
2022-11-20T17:46:39.820Z,5.60
2022-11-20T17:49:06.751Z,5.68
2022-11-20T17:51:37.772Z,5.82
2022-11-20T17:54:07.653Z,5.40
2022-11-20T17:56:54.275Z,4.75
2022-11-20T17:59:22.200Z,4.20
2022-11-20T18:01:49.202Z,3.75
2022-11-20T18:04:16.611Z,4.10
2022-11-20T18:06:44.074Z,3.53
2022-11-20T18:09:12.029Z,3.53
2022-11-20T18:11:41.170Z,3.65
2022-11-20T18:14:28.857Z,4.63
2022-11-20T18:16:59.575Z,3.85
2022-11-20T18:19:38.753Z,3.10
2022-11-20T18:22:08.862Z,3.05
2022-11-20T18:24:37.108Z,3.60
2022-11-20T18:27:05.624Z,3.90
2022-11-20T18:29:32.170Z,11.13
2022-11-20T18:32:00.480Z,5.22
2022-11-20T18:34:27.846Z,4.60
2022-11-20T18:36:54.312Z,2.80
2022-11-20T18:39:21.092Z,4.82
2022-11-20T18:42:06.463Z,2.05
2022-11-20T18:44:51.303Z,1.90
2022-11-20T18:47:25.758Z,2.20
2022-11-20T18:49:55.029Z,6.57
2022-11-20T18:52:29.332Z,2.30
2022-11-20T18:54:56.677Z,3.60
2022-11-20T18:57:26.985Z,2.22
2022-11-20T18:59:55.925Z,2.17
2022-11-20T19:02:23.246Z,1.90
2022-11-20T19:04:49.816Z,1.35
2022-11-20T19:07:17.467Z,1.67
2022-11-20T19:09:49.165Z,1.80
2022-11-20T19:12:16.562Z,2.85
2022-11-20T19:14:43.214Z,1.50
2022-11-20T19:17:11.300Z,1.52
2022-11-20T19:19:37.825Z,1.92
2022-11-20T19:22:04.491Z,1.77
2022-11-20T19:24:31.419Z,3.00
2022-11-20T19:26:58.103Z,1.85
2022-11-20T19:29:25.604Z,3.13
2022-11-20T19:31:52.649Z,3.05
2022-11-20T19:34:19.180Z,1.60
2022-11-20T19:36:46.493Z,1.55
2022-11-20T19:39:13.377Z,1.30
2022-11-20T19:41:41.364Z,7.57
2022-11-20T19:44:12.432Z,1.83
2022-11-20T19:46:40.819Z,1.90
2022-11-20T19:49:10.402Z,1.45
2022-11-20T19:51:43.482Z,2.17
2022-11-20T19:54:10.037Z,2.70
2022-11-20T19:56:36.618Z,2.28
2022-11-20T19:59:03.228Z,2.33
2022-11-20T20:01:31.361Z,2.15
2022-11-20T20:04:05.299Z,1.42
2022-11-20T20:06:34.840Z,1.95
2022-11-20T20:09:06.089Z,1.65
2022-11-20T20:11:35.196Z,2.10
2022-11-20T20:14:13.679Z,2.08
2022-11-20T20:16:41.576Z,2.17
2022-11-20T20:19:11.233Z,2.58
2022-11-20T20:21:37.726Z,2.28
2022-11-20T20:24:04.782Z,2.15
2022-11-20T20:26:33.159Z,2.33
2022-11-20T20:29:01.946Z,2.70
2022-11-20T20:31:31.888Z,2.22
2022-11-20T20:33:58.702Z,2.03
2022-11-20T20:36:26.077Z,2.08
2022-11-20T20:38:59.413Z,2.33
2022-11-20T20:41:26.235Z,2.33
2022-11-20T20:44:12.097Z,2.88
2022-11-20T20:46:39.965Z,2.60
2022-11-20T20:49:07.357Z,2.70
2022-11-20T20:51:34.521Z,2.92
2022-11-20T20:54:01.306Z,2.40
2022-11-20T20:56:27.825Z,2.53
2022-11-20T20:58:54.328Z,2.40
2022-11-20T21:01:22.672Z,2.53
2022-11-20T21:03:49.217Z,2.22
2022-11-20T21:06:15.900Z,2.60
2022-11-20T21:08:44.428Z,2.33
2022-11-20T21:11:14.793Z,2.40
2022-11-20T21:13:43.899Z,2.60
2022-11-20T21:16:12.136Z,2.25
2022-11-20T21:18:38.867Z,2.50
2022-11-20T21:21:30.928Z,2.53
2022-11-20T21:23:57.527Z,2.30
2022-11-20T21:26:24.231Z,2.53
2022-11-20T21:28:50.801Z,2.60
2022-11-20T21:31:28.375Z,3.25
2022-11-20T21:33:56.826Z,2.72
2022-11-20T21:36:27.736Z,2.83
2022-11-20T21:38:56.296Z,2.70
2022-11-20T21:41:24.812Z,2.67
2022-11-20T21:44:23.681Z,3.35
2022-11-20T21:46:42.880Z,3.38
2022-11-20T21:49:10.940Z,2.88
2022-11-20T21:51:37.661Z,3.20
2022-11-20T21:54:04.272Z,3.13
2022-11-20T21:56:30.791Z,2.50
2022-11-20T21:58:58.083Z,2.83
2022-11-20T22:01:30.466Z,2.90
2022-11-20T22:04:02.646Z,3.20
2022-11-20T22:06:34.321Z,3.15
2022-11-20T22:09:03.062Z,2.97
2022-11-20T22:11:30.242Z,2.53
2022-11-20T22:14:15.597Z,2.97
2022-11-20T22:16:42.174Z,2.90
2022-11-20T22:19:09.202Z,3.15
2022-11-20T22:21:38.401Z,3.08
2022-11-20T22:24:05.082Z,3.08
2022-11-20T22:26:39.984Z,3.15
2022-11-20T22:29:12.276Z,3.00
2022-11-20T22:31:38.729Z,2.90
2022-11-20T22:34:05.248Z,2.78
2022-11-20T22:36:32.516Z,3.20
2022-11-20T22:39:02.542Z,2.88
2022-11-20T22:41:30.041Z,2.97
2022-11-20T22:43:59.152Z,3.13
2022-11-20T22:46:28.683Z,3.08
2022-11-20T22:49:02.283Z,2.88
2022-11-20T22:51:32.707Z,3.15
2022-11-20T22:53:59.989Z,3.28
2022-11-20T22:56:26.609Z,3.35
2022-11-20T22:58:54.702Z,3.08
2022-11-20T23:01:31.349Z,3.05
2022-11-20T23:06:27.878Z,3.10
2022-11-20T23:08:55.544Z,3.22
2022-11-20T23:11:28.492Z,3.33
2022-11-20T23:14:11.421Z,3.72
2022-11-20T23:16:37.951Z,3.35
2022-11-20T23:19:08.959Z,2.95
2022-11-20T23:21:38.097Z,2.53
2022-11-20T23:24:06.495Z,2.70
2022-11-20T23:26:36.445Z,2.95
2022-11-20T23:29:03.838Z,3.33
2022-11-20T23:31:33.336Z,3.25
2022-11-20T23:34:00.141Z,2.90
2022-11-20T23:36:27.092Z,3.10
2022-11-20T23:38:53.650Z,2.70
2022-11-20T23:41:20.118Z,2.97
2022-11-20T23:43:46.608Z,2.97
2022-11-20T23:46:16.492Z,2.83
2022-11-20T23:48:45.075Z,2.70
2022-11-20T23:51:12.110Z,3.00
2022-11-20T23:53:38.671Z,3.00
2022-11-20T23:56:06.149Z,2.70
2022-11-20T23:58:38.019Z,3.28
